createdAt,value
2019-02-02T00:05:18.262Z,93.66
2019-02-02T00:07:47.765Z,92.68
2019-02-02T00:10:35.848Z,92.58
2019-02-02T00:16:05.182Z,92.73
2019-02-02T00:18:20.306Z,92.93
2019-02-02T00:20:49.463Z,93.08
2019-02-02T00:23:18.413Z,93.19
2019-02-02T00:25:47.701Z,93.51
2019-02-02T00:28:16.742Z,94.11
2019-02-02T00:30:45.700Z,94.45
2019-02-02T00:33:14.640Z,94.52
2019-02-02T00:35:43.597Z,93.53
2019-02-02T00:38:33.169Z,93.72
2019-02-02T00:41:02.154Z,93.48
2019-02-02T00:43:31.160Z,93.30
2019-02-02T00:46:00.267Z,93.17
2019-02-02T00:48:29.509Z,93.26
2019-02-02T00:50:58.550Z,93.78
2019-02-02T00:53:27.746Z,93.81
2019-02-02T00:55:56.707Z,93.73
2019-02-02T00:58:25.613Z,93.86
2019-02-02T01:00:54.630Z,94.20
2019-02-02T01:03:23.401Z,94.29
2019-02-02T01:05:52.031Z,93.56
2019-02-02T01:08:20.786Z,94.05
2019-02-02T01:10:49.460Z,94.36
2019-02-02T01:13:18.164Z,94.29
2019-02-02T01:15:46.880Z,94.64
2019-02-02T01:18:15.502Z,94.93
2019-02-02T01:20:44.111Z,94.86
2019-02-02T01:23:12.817Z,94.42
2019-02-02T01:25:41.429Z,94.44
2019-02-02T01:28:10.273Z,94.47
2019-02-02T01:30:38.962Z,94.91
2019-02-02T01:33:07.722Z,95.49
2019-02-02T01:35:36.408Z,95.52
2019-02-02T01:38:05.260Z,95.39
2019-02-02T01:40:33.911Z,94.88
2019-02-02T01:43:02.538Z,94.78
2019-02-02T01:45:31.149Z,94.70
2019-02-02T01:47:59.950Z,94.34
2019-02-02T01:50:28.710Z,94.38
2019-02-02T01:52:57.634Z,94.86
2019-02-02T01:55:26.315Z,94.01
2019-02-02T01:57:55.103Z,93.46
2019-02-02T02:00:25.728Z,94.34
2019-02-02T02:02:54.423Z,94.88
2019-02-02T02:05:23.123Z,95.39
2019-02-02T02:07:51.903Z,96.11
2019-02-02T02:13:34.672Z,95.80
2019-02-02T02:16:03.394Z,95.82
2019-02-02T02:18:32.014Z,95.43
2019-02-02T02:21:00.628Z,95.81
2019-02-02T02:23:29.283Z,95.96
2019-02-02T02:25:57.848Z,95.92
2019-02-02T02:28:28.237Z,95.65
2019-02-02T02:30:56.808Z,95.83
2019-02-02T02:33:25.503Z,96.13
2019-02-02T02:35:54.102Z,96.34
2019-02-02T02:38:22.855Z,96.43
2019-02-02T02:40:51.480Z,96.44
2019-02-02T02:43:20.101Z,96.17
2019-02-02T02:45:48.731Z,96.85
2019-02-02T02:48:17.419Z,96.64
2019-02-02T02:50:46.079Z,96.20
2019-02-02T02:53:14.680Z,96.27
2019-02-02T02:55:43.316Z,96.53
2019-02-02T02:58:11.987Z,96.94
2019-02-02T03:00:40.613Z,97.42
2019-02-02T03:03:09.312Z,97.32
2019-02-02T03:05:38.031Z,96.59
2019-02-02T03:08:06.727Z,97.10
2019-02-02T03:10:35.449Z,97.42
2019-02-02T03:13:04.142Z,97.63
2019-02-02T03:15:32.829Z,97.27
2019-02-02T03:18:01.584Z,97.35
2019-02-02T03:20:30.200Z,96.98
2019-02-02T03:22:58.815Z,97.10
2019-02-02T03:25:27.622Z,97.42
2019-02-02T03:27:56.295Z,97.58
2019-02-02T03:30:24.939Z,97.35
2019-02-02T03:32:53.613Z,97.47
2019-02-02T03:36:02.574Z,97.33
2019-02-02T03:38:31.197Z,97.35
2019-02-02T03:40:59.859Z,97.14
2019-02-02T03:43:28.542Z,97.30
2019-02-02T03:45:57.237Z,97.36
2019-02-02T03:48:25.922Z,97.44
2019-02-02T03:50:54.535Z,97.73
2019-02-02T03:53:23.156Z,98.01
2019-02-02T03:55:51.819Z,98.20
2019-02-02T03:58:20.506Z,98.07
2019-02-02T04:00:49.220Z,98.18
2019-02-02T04:03:17.913Z,97.89
2019-02-02T04:05:46.617Z,98.27
2019-02-02T04:08:15.250Z,98.43
2019-02-02T04:10:43.956Z,98.40
2019-02-02T04:13:12.591Z,97.76
2019-02-02T04:15:41.295Z,97.77
2019-02-02T04:18:09.919Z,97.88
2019-02-02T04:20:38.541Z,97.98
2019-02-02T04:23:07.321Z,98.27
2019-02-02T04:25:35.992Z,98.55
2019-02-02T04:28:04.656Z,98.99
2019-02-02T04:30:33.355Z,99.44
2019-02-02T04:33:01.962Z,99.83
2019-02-02T04:35:30.639Z,100.00
2019-02-02T04:37:59.208Z,99.98
2019-02-02T04:40:27.928Z,99.89
2019-02-02T04:42:56.546Z,98.84
2019-02-02T04:45:25.181Z,98.52
2019-02-02T04:47:53.811Z,98.79
2019-02-02T04:50:22.491Z,99.05
2019-02-02T04:52:51.208Z,99.29
2019-02-02T04:55:19.929Z,99.44
2019-02-02T04:57:48.764Z,99.71
2019-02-02T05:00:22.742Z,99.50
2019-02-02T05:03:31.158Z,99.46
2019-02-02T05:05:59.835Z,99.24
2019-02-02T05:08:28.486Z,98.27
2019-02-02T05:10:57.140Z,98.27
2019-02-02T05:13:25.755Z,98.30
2019-02-02T05:15:54.370Z,98.07
2019-02-02T05:18:23.019Z,97.59
2019-02-02T05:20:51.688Z,97.92
2019-02-02T05:23:20.322Z,97.88
2019-02-02T05:25:48.956Z,97.52
2019-02-02T05:28:17.581Z,97.40
2019-02-02T05:30:46.189Z,97.54
2019-02-02T05:33:14.823Z,97.43
2019-02-02T05:35:43.440Z,97.16
2019-02-02T05:38:12.132Z,97.27
2019-02-02T05:40:40.755Z,97.57
2019-02-02T05:43:09.462Z,98.01
2019-02-02T05:45:38.155Z,98.35
2019-02-02T05:48:06.774Z,98.22
2019-02-02T05:50:35.480Z,98.36
2019-02-02T05:53:04.189Z,98.74
2019-02-02T05:55:32.886Z,99.06
2019-02-02T05:58:01.517Z,99.05
2019-02-02T06:03:24.362Z,99.22
2019-02-02T06:05:53.061Z,99.58
2019-02-02T06:08:21.675Z,99.77
2019-02-02T06:10:50.362Z,99.72
2019-02-02T06:13:19.349Z,100.00
2019-02-02T06:15:47.944Z,100.00
2019-02-02T06:18:16.559Z,99.90
2019-02-02T06:20:45.175Z,100.00
2019-02-02T06:23:13.806Z,100.00
2019-02-02T06:25:42.427Z,100.00
2019-02-02T06:28:11.081Z,100.00
2019-02-02T06:30:39.797Z,100.00
2019-02-02T06:33:08.441Z,100.00
2019-02-02T06:35:37.144Z,100.00
2019-02-02T06:38:05.912Z,100.00
2019-02-02T06:40:34.525Z,100.00
2019-02-02T06:43:03.302Z,100.00
2019-02-02T06:45:33.949Z,100.00
2019-02-02T06:48:02.666Z,100.00
2019-02-02T06:50:31.354Z,100.00
2019-02-02T06:53:00.263Z,100.00
2019-02-02T06:55:28.965Z,100.00
2019-02-02T06:57:57.642Z,100.00
2019-02-02T07:00:26.744Z,100.00
2019-02-02T07:05:58.309Z,100.00
2019-02-02T07:08:26.940Z,100.00
2019-02-02T07:10:55.564Z,99.71
2019-02-02T07:13:24.284Z,99.94
2019-02-02T07:15:52.908Z,100.00
2019-02-02T07:18:21.569Z,100.00
2019-02-02T07:20:50.198Z,100.00
2019-02-02T07:23:18.905Z,100.00
2019-02-02T07:25:47.646Z,100.00
2019-02-02T07:28:16.271Z,100.00
2019-02-02T07:30:44.936Z,100.00
2019-02-02T07:33:13.698Z,100.00
2019-02-02T07:35:42.360Z,100.00
2019-02-02T07:38:10.992Z,100.00
2019-02-02T07:40:39.745Z,99.79
2019-02-02T07:43:08.475Z,99.76
2019-02-02T07:45:37.110Z,99.50
2019-02-02T07:48:05.792Z,99.44
2019-02-02T07:50:34.418Z,99.49
2019-02-02T07:53:03.053Z,99.47
2019-02-02T07:55:31.778Z,99.55
2019-02-02T07:58:00.382Z,99.93
2019-02-02T08:00:41.235Z,100.00
2019-02-02T08:03:10.811Z,100.00
2019-02-02T08:05:39.513Z,100.00
2019-02-02T08:08:08.193Z,100.00
2019-02-02T08:10:36.810Z,100.00
2019-02-02T08:16:19.723Z,100.00
2019-02-02T08:18:48.417Z,100.00
2019-02-02T08:21:17.246Z,100.00
2019-02-02T08:23:45.825Z,100.00
2019-02-02T08:26:14.586Z,100.00
2019-02-02T08:28:43.301Z,100.00
2019-02-02T08:31:11.957Z,100.00
2019-02-02T08:33:40.617Z,100.00
2019-02-02T08:36:09.244Z,100.00
2019-02-02T08:38:37.980Z,100.00
2019-02-02T08:41:06.681Z,100.00
2019-02-02T08:43:35.278Z,100.00
2019-02-02T08:46:04.083Z,100.00
2019-02-02T08:48:32.731Z,100.00
2019-02-02T08:51:01.462Z,100.00
2019-02-02T08:53:30.147Z,100.00
2019-02-02T08:55:58.815Z,100.00
2019-02-02T08:58:27.508Z,100.00
2019-02-02T09:01:03.867Z,100.00
2019-02-02T09:03:26.549Z,100.00
2019-02-02T09:05:55.336Z,100.00
2019-02-02T09:08:24.132Z,100.00
2019-02-02T09:10:52.864Z,100.00
2019-02-02T09:13:21.618Z,100.00
2019-02-02T09:15:50.332Z,100.00
2019-02-02T09:18:19.044Z,100.00
2019-02-02T09:20:47.776Z,100.00
2019-02-02T09:23:16.460Z,99.51
2019-02-02T09:25:45.133Z,99.93
2019-02-02T09:28:13.852Z,100.00
2019-02-02T09:30:42.491Z,100.00
2019-02-02T09:33:11.101Z,100.00
2019-02-02T09:35:39.892Z,100.00
2019-02-02T09:38:08.507Z,100.00
2019-02-02T09:40:37.278Z,100.00
2019-02-02T09:43:06.062Z,100.00
2019-02-02T09:45:36.860Z,100.00
2019-02-02T09:48:05.752Z,100.00
2019-02-02T09:50:34.365Z,100.00
2019-02-02T09:53:03.049Z,100.00
2019-02-02T09:55:31.752Z,100.00
2019-02-02T09:58:03.408Z,100.00
2019-02-02T10:00:32.809Z,100.00
2019-02-02T10:03:01.605Z,100.00
2019-02-02T10:05:30.998Z,100.00
2019-02-02T10:07:59.709Z,100.00
2019-02-02T10:10:30.327Z,100.00
2019-02-02T10:12:59.003Z,100.00
2019-02-02T10:15:27.693Z,100.00
2019-02-02T10:17:56.410Z,99.96
2019-02-02T10:20:26.579Z,100.00
2019-02-02T10:23:35.072Z,100.00
2019-02-02T10:26:03.751Z,100.00
2019-02-02T10:28:32.362Z,100.00
2019-02-02T10:31:00.976Z,100.00
2019-02-02T10:33:29.801Z,100.00
2019-02-02T10:35:58.393Z,100.00
2019-02-02T10:38:27.099Z,100.00
2019-02-02T10:40:55.726Z,100.00
2019-02-02T10:43:24.502Z,100.00
2019-02-02T10:45:53.185Z,100.00
2019-02-02T10:48:21.808Z,100.00
2019-02-02T10:50:50.426Z,100.00
2019-02-02T10:53:19.073Z,100.00
2019-02-02T10:55:47.787Z,100.00
2019-02-02T10:58:16.520Z,100.00
2019-02-02T11:00:45.246Z,100.00
2019-02-02T11:03:13.900Z,100.00
2019-02-02T11:05:42.610Z,100.00
2019-02-02T11:08:11.296Z,100.00
2019-02-02T11:10:40.058Z,100.00
2019-02-02T11:13:08.800Z,100.00
2019-02-02T11:15:37.728Z,100.00
2019-02-02T11:18:06.803Z,100.00
2019-02-02T11:20:56.452Z,100.00
2019-02-02T11:23:25.339Z,100.00
2019-02-02T11:25:54.066Z,100.00
2019-02-02T11:28:22.803Z,100.00
2019-02-02T11:30:52.264Z,100.00
2019-02-02T11:33:21.713Z,100.00
2019-02-02T11:35:50.441Z,100.00
2019-02-02T11:38:19.148Z,100.00
2019-02-02T11:40:47.866Z,100.00
2019-02-02T11:43:16.559Z,100.00
2019-02-02T11:45:45.270Z,100.00
2019-02-02T11:48:15.089Z,100.00
2019-02-02T11:50:44.412Z,100.00
2019-02-02T11:53:13.034Z,100.00
2019-02-02T11:55:41.729Z,100.00
2019-02-02T11:58:10.435Z,100.00
2019-02-02T12:00:41.100Z,100.00
2019-02-02T12:03:09.845Z,100.00
2019-02-02T12:05:38.561Z,100.00
2019-02-02T12:08:07.330Z,100.00
2019-02-02T12:10:36.142Z,100.00
2019-02-02T12:13:05.069Z,100.00
2019-02-02T12:15:33.729Z,100.00
2019-02-02T12:18:02.547Z,100.00
2019-02-02T12:20:33.372Z,100.00
2019-02-02T12:23:01.604Z,100.00
2019-02-02T12:25:30.316Z,100.00
2019-02-02T12:27:59.008Z,100.00
2019-02-02T12:30:46.879Z,100.00
2019-02-02T12:33:15.586Z,100.00
2019-02-02T12:35:44.333Z,100.00
2019-02-02T12:38:12.955Z,100.00
2019-02-02T12:40:41.642Z,100.00
2019-02-02T12:43:11.688Z,100.00
2019-02-02T12:46:00.031Z,100.00
2019-02-02T12:48:28.683Z,100.00
2019-02-02T12:50:57.388Z,100.00
2019-02-02T12:53:26.119Z,100.00
2019-02-02T12:55:54.858Z,100.00
2019-02-02T12:58:23.552Z,100.00
2019-02-02T13:00:52.240Z,99.96
2019-02-02T13:03:20.981Z,100.00
2019-02-02T13:05:49.716Z,100.00
2019-02-02T13:08:18.397Z,100.00
2019-02-02T13:10:47.044Z,99.72
2019-02-02T13:13:15.759Z,100.00
2019-02-02T13:15:44.444Z,100.00
2019-02-02T13:18:13.153Z,100.00
2019-02-02T13:20:41.749Z,100.00
2019-02-02T13:23:10.362Z,98.03
2019-02-02T13:25:39.114Z,98.82
2019-02-02T13:28:07.792Z,98.12
2019-02-02T13:30:36.924Z,98.22
2019-02-02T13:33:06.746Z,98.04
2019-02-02T13:35:37.752Z,98.36
2019-02-02T13:41:33.863Z,98.63
2019-02-02T13:44:02.490Z,98.95
2019-02-02T13:46:31.201Z,99.30
2019-02-02T13:48:59.826Z,99.74
2019-02-02T13:51:28.526Z,99.97
2019-02-02T13:53:57.225Z,99.19
2019-02-02T13:56:25.875Z,99.38
2019-02-02T13:58:54.513Z,99.68
2019-02-02T14:01:23.282Z,99.62
2019-02-02T14:03:51.884Z,99.75
2019-02-02T14:06:20.600Z,99.86
2019-02-02T14:08:49.354Z,99.18
2019-02-02T14:11:17.984Z,99.37
2019-02-02T14:13:46.608Z,99.68
2019-02-02T14:16:15.242Z,99.84
2019-02-02T14:18:43.897Z,100.00
2019-02-02T14:21:12.535Z,100.00
2019-02-02T14:23:41.170Z,100.00
2019-02-02T14:26:09.802Z,100.00
2019-02-02T14:28:38.452Z,100.00
2019-02-02T14:31:07.091Z,100.00
2019-02-02T14:33:35.701Z,100.00
2019-02-02T14:36:04.383Z,100.00
2019-02-02T14:38:32.999Z,100.00
2019-02-02T14:41:01.632Z,100.00
2019-02-02T14:43:30.363Z,100.00
2019-02-02T14:45:59.002Z,100.00
2019-02-02T14:48:27.718Z,100.00
2019-02-02T14:50:56.360Z,100.00
2019-02-02T14:53:24.984Z,100.00
2019-02-02T14:55:53.621Z,100.00
2019-02-02T14:58:22.291Z,100.00
2019-02-02T15:00:53.883Z,99.80
2019-02-02T15:03:25.745Z,99.98
2019-02-02T15:05:51.822Z,100.00
2019-02-02T15:08:20.493Z,100.00
2019-02-02T15:10:49.180Z,100.00
2019-02-02T15:13:17.886Z,100.00
2019-02-02T15:15:46.546Z,100.00
2019-02-02T15:18:15.249Z,100.00
2019-02-02T15:20:43.852Z,100.00
2019-02-02T15:23:12.500Z,100.00
2019-02-02T15:25:41.197Z,100.00
2019-02-02T15:28:09.834Z,100.00
2019-02-02T15:30:38.447Z,100.00
2019-02-02T15:33:07.206Z,100.00
2019-02-02T15:35:35.896Z,100.00
2019-02-02T15:38:04.781Z,100.00
2019-02-02T15:40:33.431Z,100.00
2019-02-02T15:43:02.192Z,100.00
2019-02-02T15:45:31.162Z,100.00
2019-02-02T15:47:59.986Z,100.00
2019-02-02T15:50:28.696Z,100.00
2019-02-02T15:52:57.428Z,100.00
2019-02-02T15:55:26.159Z,100.00
2019-02-02T15:57:54.790Z,100.00
2019-02-02T16:00:42.691Z,100.00
2019-02-02T16:03:11.471Z,100.00
2019-02-02T16:05:40.167Z,100.00
2019-02-02T16:08:28.020Z,100.00
2019-02-02T16:10:56.771Z,100.00
2019-02-02T16:13:25.473Z,100.00
2019-02-02T16:15:54.116Z,100.00
2019-02-02T16:18:22.759Z,100.00
2019-02-02T16:20:51.388Z,100.00
2019-02-02T16:23:20.063Z,100.00
2019-02-02T16:25:48.677Z,100.00
2019-02-02T16:28:17.327Z,100.00
2019-02-02T16:30:45.942Z,100.00
2019-02-02T16:33:14.641Z,100.00
2019-02-02T16:35:43.273Z,100.00
2019-02-02T16:38:12.100Z,100.00
2019-02-02T16:40:40.754Z,100.00
2019-02-02T16:43:09.546Z,100.00
2019-02-02T16:45:38.180Z,100.00
2019-02-02T16:48:07.207Z,100.00
2019-02-02T16:50:35.932Z,100.00
2019-02-02T16:53:04.794Z,100.00
2019-02-02T16:55:34.604Z,100.00
2019-02-02T16:58:03.700Z,100.00
2019-02-02T17:00:34.813Z,100.00
2019-02-02T17:03:03.883Z,100.00
2019-02-02T17:05:32.993Z,100.00
2019-02-02T17:11:10.740Z,100.00
2019-02-02T17:16:48.167Z,100.00
2019-02-02T17:19:17.024Z,100.00
2019-02-02T17:21:46.127Z,100.00
2019-02-02T17:24:15.267Z,99.45
2019-02-02T17:26:44.795Z,99.11
2019-02-02T17:29:14.442Z,98.97
2019-02-02T17:32:02.628Z,98.70
2019-02-02T17:45:22.179Z,99.63
2019-02-02T17:51:05.748Z,99.58
2019-02-02T17:53:34.786Z,99.32
2019-02-02T18:01:57.689Z,99.04
2019-02-02T18:04:38.784Z,99.28
2019-02-02T18:06:57.229Z,99.54
2019-02-02T18:09:46.846Z,99.63
2019-02-02T18:12:15.601Z,100.00
2019-02-02T18:14:44.314Z,100.00
2019-02-02T18:17:12.990Z,100.00
2019-02-02T18:19:41.714Z,100.00
2019-02-02T18:22:10.431Z,100.00
2019-02-02T18:24:39.125Z,100.00
2019-02-02T18:27:07.743Z,100.00
2019-02-02T18:29:36.373Z,100.00
2019-02-02T18:32:12.712Z,100.00
2019-02-02T18:34:35.547Z,100.00
2019-02-02T18:37:04.239Z,99.87
2019-02-02T18:39:32.928Z,100.00
2019-02-02T18:42:00.285Z,100.00
2019-02-02T18:44:28.911Z,100.00
2019-02-02T18:47:00.932Z,100.00
2019-02-02T18:49:50.553Z,99.69
2019-02-02T18:53:00.925Z,99.70
2019-02-02T18:55:47.399Z,99.81
2019-02-02T18:58:35.542Z,100.00
2019-02-02T19:03:49.171Z,100.00
2019-02-02T19:06:19.222Z,100.00
2019-02-02T19:09:29.823Z,100.00
2019-02-02T19:12:07.523Z,100.00
2019-02-02T19:15:04.066Z,100.00
2019-02-02T19:29:19.981Z,100.00
2019-02-02T19:37:37.532Z,98.90
2019-02-02T19:44:23.529Z,98.81
2019-02-02T19:50:13.951Z,98.19
2019-02-02T19:52:46.550Z,98.44
2019-02-02T19:55:15.421Z,97.96
2019-02-02T19:57:44.352Z,97.81
2019-02-02T20:00:16.575Z,97.87
2019-02-02T20:02:45.489Z,97.90
2019-02-02T20:05:33.502Z,97.99
2019-02-02T20:08:02.342Z,98.21
2019-02-02T20:13:19.774Z,98.55
2019-02-02T20:15:56.691Z,98.71
2019-02-02T20:21:01.438Z,98.37
2019-02-02T20:23:30.261Z,96.82
2019-02-02T20:25:59.306Z,95.69
2019-02-02T20:28:28.411Z,95.87
2019-02-02T20:30:59.019Z,96.39
2019-02-02T20:33:27.846Z,96.53
2019-02-02T20:35:59.539Z,96.59
2019-02-02T20:38:28.205Z,96.49
2019-02-02T20:40:56.980Z,96.25
2019-02-02T20:43:25.841Z,96.34
2019-02-02T20:45:54.948Z,95.66
2019-02-02T20:48:43.147Z,95.52
2019-02-02T20:51:11.996Z,95.50
2019-02-02T20:53:40.812Z,95.73
2019-02-02T20:56:09.758Z,95.91
2019-02-02T20:58:44.655Z,96.47
2019-02-02T21:01:34.414Z,96.73
2019-02-02T21:04:03.303Z,96.82
2019-02-02T21:06:32.234Z,97.05
2019-02-02T21:09:01.331Z,97.05
2019-02-02T21:11:31.931Z,97.08
2019-02-02T21:14:19.926Z,97.17
2019-02-02T21:16:50.625Z,97.48
2019-02-02T21:19:19.740Z,97.61
2019-02-02T21:22:12.000Z,97.74
2019-02-02T21:26:02.859Z,98.07
2019-02-02T21:28:33.480Z,98.46
2019-02-02T21:33:45.793Z,98.80
2019-02-02T21:36:14.964Z,100.00
2019-02-02T21:38:43.921Z,100.00
2019-02-02T21:41:32.040Z,100.00
2019-02-02T21:44:21.662Z,100.00
2019-02-02T21:46:50.891Z,100.00
2019-02-02T21:49:19.713Z,99.15
2019-02-02T21:51:48.627Z,98.72
2019-02-02T21:54:17.611Z,98.40
2019-02-02T21:57:05.652Z,98.27
2019-02-02T21:59:35.829Z,97.84
2019-02-02T22:05:26.332Z,96.08
2019-02-02T22:07:56.008Z,95.01
2019-02-02T22:10:25.953Z,94.61
2019-02-02T22:13:35.738Z,94.75
2019-02-02T22:16:25.625Z,95.17
2019-02-02T22:19:26.711Z,96.03
2019-02-02T22:25:33.423Z,96.06
2019-02-02T22:31:09.860Z,96.42
2019-02-02T22:33:38.830Z,96.42
2019-02-02T22:36:07.729Z,96.37
2019-02-02T22:38:55.875Z,96.62
2019-02-02T22:44:32.746Z,96.78
2019-02-02T22:47:26.739Z,96.92
2019-02-02T22:49:55.689Z,96.63
2019-02-02T22:55:55.813Z,97.42
2019-02-02T22:58:27.401Z,97.48
2019-02-02T23:04:56.496Z,98.30
2019-02-02T23:11:22.808Z,97.32
2019-02-02T23:14:30.127Z,97.02
2019-02-02T23:17:08.858Z,96.36
2019-02-02T23:20:00.542Z,96.05
2019-02-02T23:22:29.617Z,96.44
2019-02-02T23:24:58.304Z,96.71
2019-02-02T23:27:26.996Z,96.53
2019-02-02T23:29:55.737Z,95.80
2019-02-02T23:32:43.922Z,95.84
2019-02-02T23:35:12.821Z,95.64
2019-02-02T23:37:42.378Z,95.78
2019-02-02T23:45:48.352Z,95.19
2019-02-02T23:48:17.177Z,95.24
2019-02-02T23:50:47.709Z,94.81
2019-02-02T23:53:16.348Z,95.10
2019-02-02T23:55:45.219Z,95.29
2019-02-02T23:58:13.947Z,94.98
